Time;durP1;ratioP1;P1;durP2;ratioP2;P2;SDS_P1;SDS_P2;PMS_P1;PMS_P2;Temp;Humidity;BMP_temperature;BMP_pressure;BME280_temperature;BME280_humidity;BME280_pressure;Samples;Min_cycle;Max_cycle;Signal;HPM_P1;HPM_P2
2023/11/10 00:02:18;;;;;;;4.55;2.08;;;;;;;8.51;100.00;99396.13;5009914;28;20584;-70
2023/11/10 00:04:45;;;;;;;5.60;2.08;;;;;;;8.46;100.00;99388.72;5010379;28;20033;-70
2023/11/10 00:07:11;;;;;;;3.50;2.00;;;;;;;8.36;100.00;99399.09;5012010;28;20028;-70
2023/11/10 00:09:36;;;;;;;2.95;2.05;;;;;;;8.41;100.00;99399.31;4994066;28;20030;-70
2023/11/10 00:12:02;;;;;;;3.30;2.20;;;;;;;8.45;100.00;99405.88;5009686;28;20057;-70
2023/11/10 00:14:30;;;;;;;2.20;1.70;;;;;;;8.55;100.00;99402.69;5010692;28;20041;-70
2023/11/10 00:16:56;;;;;;;2.10;1.70;;;;;;;8.57;100.00;99405.94;5010864;28;20033;-70
2023/11/10 00:19:22;;;;;;;3.90;1.63;;;;;;;8.60;100.00;99413.56;5010626;28;20141;-70
2023/11/10 00:21:50;;;;;;;4.32;1.77;;;;;;;8.58;100.00;99410.28;5011911;28;20482;-70
2023/11/10 00:24:16;;;;;;;2.00;1.65;;;;;;;8.59;100.00;99419.97;5012232;28;20121;-70
2023/11/10 00:26:41;;;;;;;2.60;1.70;;;;;;;8.57;100.00;99408.63;5011952;28;20062;-70
2023/11/10 00:29:07;;;;;;;2.00;1.30;;;;;;;8.36;100.00;99369.63;5012402;28;20551;-70
2023/11/10 00:31:33;;;;;;;2.28;1.77;;;;;;;8.60;100.00;99402.81;5012454;28;20835;-70
2023/11/10 00:33:59;;;;;;;2.53;1.35;;;;;;;8.62;100.00;99394.56;5010716;28;20088;-70
2023/11/10 00:36:24;;;;;;;4.38;1.42;;;;;;;8.63;100.00;99398.91;5012096;28;20038;-70
2023/11/10 00:38:50;;;;;;;2.50;1.40;;;;;;;8.64;100.00;99395.16;5010161;28;20033;-70
2023/11/10 00:41:15;;;;;;;3.40;1.88;;;;;;;8.56;100.00;99387.41;5010119;28;20117;-70
2023/11/10 00:43:41;;;;;;;4.68;2.10;;;;;;;8.64;100.00;99398.69;5012044;28;20040;-70
2023/11/10 00:46:08;;;;;;;4.93;2.50;;;;;;;8.45;100.00;99373.69;5011562;28;20362;-70
2023/11/10 00:48:33;;;;;;;3.80;2.97;;;;;;;8.62;100.00;99408.81;5010898;28;20061;-70
2023/11/10 00:50:59;;;;;;;6.05;3.65;;;;;;;8.53;100.00;99395.91;5026964;28;20210;-70
2023/11/10 00:53:26;;;;;;;8.15;4.30;;;;;;;8.44;100.00;99382.78;5010125;28;20041;-69
2023/11/10 00:55:56;;;;;;;7.43;4.60;;;;;;;8.62;100.00;99410.66;5011305;28;20054;-70
2023/11/10 00:58:21;;;;;;;7.60;4.40;;;;;;;8.64;100.00;99409.41;5008336;28;20046;-70
2023/11/10 01:00:48;;;;;;;10.20;4.40;;;;;;;8.61;100.00;99396.44;5009481;28;20093;-70
2023/11/10 01:03:13;;;;;;;7.15;4.65;;;;;;;8.62;100.00;99410.66;5011337;28;20025;-70
2023/11/10 01:05:39;;;;;;;10.52;4.75;;;;;;;8.62;100.00;99394.56;4993956;28;20034;-70
2023/11/10 01:08:05;;;;;;;9.90;5.15;;;;;;;8.51;100.00;99376.53;5011006;28;20087;-70
2023/11/10 01:10:32;;;;;;;8.32;5.40;;;;;;;8.37;100.00;99397.22;5011041;28;20113;-70
2023/11/10 01:12:58;;;;;;;11.57;6.00;;;;;;;8.33;100.00;99391.50;5011205;28;20025;-70
2023/11/10 01:15:24;;;;;;;12.20;6.32;;;;;;;8.11;100.00;99385.72;5011156;28;20037;-69
2023/11/10 01:17:49;;;;;;;12.13;6.57;;;;;;;8.25;100.00;99383.75;5010123;28;20129;-69
2023/11/10 01:20:15;;;;;;;12.15;6.82;;;;;;;8.16;100.00;99387.72;5009947;28;20034;-70
2023/11/10 01:22:40;;;;;;;14.75;7.53;;;;;;;8.24;100.00;99379.41;5011035;28;20116;-70
2023/11/10 01:25:09;;;;;;;12.15;6.82;;;;;;;8.45;100.00;99383.59;5009000;28;20042;-70
2023/11/10 01:27:35;;;;;;;16.65;7.40;;;;;;;8.54;100.00;99390.28;5011014;28;20400;-70
2023/11/10 01:30:00;;;;;;;11.90;6.90;;;;;;;8.63;100.00;99385.47;5010141;28;20030;-70
2023/11/10 01:32:26;;;;;;;11.90;6.93;;;;;;;8.60;100.00;99367.16;5025930;28;20133;-69
2023/11/10 01:34:52;;;;;;;14.63;7.15;;;;;;;8.73;100.00;99379.63;5027323;28;20032;-70
2023/11/10 01:37:17;;;;;;;14.93;7.63;;;;;;;8.77;100.00;99388.84;5014955;28;20091;-69
2023/11/10 01:39:43;;;;;;;13.48;7.38;;;;;;;8.79;100.00;99382.22;4997179;28;20047;-70
2023/11/10 01:42:09;;;;;;;13.57;7.07;;;;;;;8.82;100.00;99383.66;5032228;28;20030;-70
2023/11/10 01:44:35;;;;;;;12.65;7.22;;;;;;;8.81;100.00;99374.78;5011303;28;20488;-70
2023/11/10 01:47:05;;;;;;;20.35;8.25;;;;;;;8.86;100.00;99382.16;5010902;28;20041;-70
2023/11/10 01:49:32;;;;;;;17.63;8.25;;;;;;;8.84;100.00;99379.72;5026014;28;20054;-70
2023/11/10 01:51:59;;;;;;;16.48;8.18;;;;;;;8.75;100.00;99383.72;5010982;28;20034;-70
2023/11/10 01:54:28;;;;;;;22.38;9.10;;;;;;;8.67;100.00;99375.94;5010913;28;20482;-70
2023/11/10 01:56:53;;;;;;;20.67;8.65;;;;;;;8.69;100.00;99377.38;5026218;28;20535;-70
2023/11/10 01:59:20;;;;;;;16.77;8.43;;;;;;;8.76;100.00;99373.81;5010989;28;20030;-70
2023/11/10 02:01:45;;;;;;;18.83;7.95;;;;;;;8.79;100.00;99376.88;5009307;28;20124;-70
2023/11/10 02:04:12;;;;;;;19.50;8.48;;;;;;;8.81;100.00;99380.16;5009882;28;20108;-69
2023/11/10 02:06:40;;;;;;;18.98;8.25;;;;;;;8.82;100.00;99384.47;5043587;28;20038;-70
2023/11/10 02:09:06;;;;;;;18.40;7.55;;;;;;;8.68;100.00;99354.28;5017897;28;20026;-70
2023/11/10 02:11:32;;;;;;;16.58;7.93;;;;;;;8.95;100.00;99378.16;5009622;28;20048;-70
2023/11/10 02:14:01;;;;;;;22.50;8.52;;;;;;;8.96;100.00;99374.41;5010184;28;20411;-70
2023/11/10 02:16:27;;;;;;;18.63;8.25;;;;;;;8.96;100.00;99371.72;5009323;28;20105;-70
2023/11/10 02:18:52;;;;;;;18.90;8.65;;;;;;;8.92;100.00;99370.53;5009570;28;20720;-70
2023/11/10 02:21:18;;;;;;;23.60;9.68;;;;;;;8.97;100.00;99365.31;5009168;28;20034;-70
2023/11/10 02:23:46;;;;;;;22.65;9.25;;;;;;;8.99;100.00;99362.41;5010261;28;20057;-69
2023/11/10 02:26:12;;;;;;;28.60;10.45;;;;;;;8.99;100.00;99357.06;5025422;28;20076;-70
2023/11/10 02:28:40;;;;;;;31.80;10.88;;;;;;;8.97;100.00;99364.50;5009135;28;20416;-70
2023/11/10 02:31:05;;;;;;;45.92;13.15;;;;;;;8.81;100.00;99339.94;5009370;28;20053;-70
2023/11/10 02:33:31;;;;;;;91.60;15.05;;;;;;;8.91;100.00;99356.31;5020044;28;20041;-70
2023/11/10 02:35:57;;;;;;;55.75;13.65;;;;;;;8.84;100.00;99331.44;5020334;28;20041;-70
2023/11/10 02:38:22;;;;;;;57.88;13.48;;;;;;;8.97;100.00;99357.25;5014902;28;20443;-70
2023/11/10 02:40:47;;;;;;;28.40;11.38;;;;;;;9.00;100.00;99347.94;5014231;28;20030;-70
2023/11/10 02:43:13;;;;;;;24.50;10.93;;;;;;;9.04;100.00;99351.81;5014239;28;20536;-70
2023/11/10 02:45:39;;;;;;;26.92;11.40;;;;;;;8.96;100.00;99326.13;5013372;28;20030;-70
2023/11/10 02:48:04;;;;;;;29.60;11.15;;;;;;;9.08;100.00;99344.97;5019558;28;20033;-70
2023/11/10 02:50:29;;;;;;;30.83;12.00;;;;;;;9.10;100.00;99337.50;5016622;28;20488;-70
2023/11/10 02:52:56;;;;;;;23.42;10.55;;;;;;;9.13;100.00;99334.38;5013379;28;20038;-70
2023/11/10 02:55:21;;;;;;;22.98;11.35;;;;;;;9.13;100.00;99337.88;5014685;28;20037;-70
2023/11/10 02:57:46;;;;;;;27.33;11.77;;;;;;;9.13;100.00;99331.69;5013221;28;20026;-70
2023/11/10 03:00:12;;;;;;;33.38;12.57;;;;;;;9.13;100.00;99337.06;4980030;28;20030;-70
2023/11/10 03:02:38;;;;;;;20.20;9.98;;;;;;;9.12;100.00;99343.47;5012593;28;20405;-70
2023/11/10 03:05:03;;;;;;;24.83;10.85;;;;;;;9.12;100.00;99333.56;5013507;28;20542;-70
2023/11/10 03:07:29;;;;;;;49.10;13.85;;;;;;;9.11;100.00;99331.94;5013149;28;20420;-70
2023/11/10 03:09:54;;;;;;;24.00;10.55;;;;;;;9.12;100.00;99335.44;5013389;28;20096;-70
2023/11/10 03:12:20;;;;;;;42.85;13.23;;;;;;;9.13;100.00;99337.06;5013147;28;20113;-70
2023/11/10 03:14:48;;;;;;;30.50;11.43;;;;;;;9.05;100.00;99334.69;5012357;28;20397;-70
2023/11/10 03:17:13;;;;;;;35.65;12.13;;;;;;;8.99;100.00;99324.88;5013958;28;20037;-70
2023/11/10 03:19:40;;;;;;;28.77;11.90;;;;;;;9.07;100.00;99335.28;5013024;28;20408;-70
2023/11/10 03:22:06;;;;;;;28.48;11.13;;;;;;;8.97;100.00;99340.34;5013255;28;20030;-70
2023/11/10 03:24:32;;;;;;;32.67;12.20;;;;;;;8.96;100.00;99330.66;4995989;28;20037;-70
2023/11/10 03:26:57;;;;;;;39.00;12.70;;;;;;;8.97;100.00;99324.25;5013565;28;20489;-70
2023/11/10 03:29:23;;;;;;;20.73;10.43;;;;;;;9.00;100.00;99335.34;5013686;28;20032;-70
2023/11/10 03:31:48;;;;;;;23.63;10.57;;;;;;;9.00;100.00;99335.34;5013577;28;20481;-70
2023/11/10 03:34:15;;;;;;;19.23;9.55;;;;;;;9.02;100.00;99329.78;5011832;28;20030;-70
2023/11/10 03:36:40;;;;;;;19.55;9.77;;;;;;;9.05;100.00;99326.66;4995116;28;20034;-70
2023/11/10 03:39:06;;;;;;;28.77;11.02;;;;;;;9.05;100.00;99330.16;5012737;28;20029;-70
2023/11/10 03:41:31;;;;;;;20.10;10.07;;;;;;;9.06;100.00;99325.59;5012813;28;20030;-70
2023/11/10 03:43:57;;;;;;;21.55;9.98;;;;;;;9.06;100.00;99320.22;5012680;28;20477;-70
2023/11/10 03:46:22;;;;;;;27.00;11.23;;;;;;;9.08;100.00;99318.16;5012100;28;20156;-70
2023/11/10 03:48:48;;;;;;;26.67;11.10;;;;;;;9.10;100.00;99316.03;5011901;28;20076;-70
2023/11/10 03:51:13;;;;;;;23.20;10.63;;;;;;;9.04;100.00;99322.31;5011202;28;20524;-70
2023/11/10 03:53:42;;;;;;;24.08;11.35;;;;;;;9.04;100.00;99320.47;5011551;28;20025;-70
2023/11/10 03:56:08;;;;;;;26.95;12.00;;;;;;;9.05;100.00;99316.72;5011888;28;20030;-70
2023/11/10 03:58:34;;;;;;;24.45;12.02;;;;;;;8.93;100.00;99308.59;5011147;28;20503;-70
2023/11/10 04:01:00;;;;;;;27.85;12.00;;;;;;;8.92;100.00;99312.34;5010660;28;20448;-70
2023/11/10 04:03:25;;;;;;;23.58;11.32;;;;;;;9.07;100.00;99311.13;5011489;28;20469;-70
2023/11/10 04:05:51;;;;;;;25.98;12.43;;;;;;;9.12;100.00;99314.78;4994046;28;20092;-69
2023/11/10 04:08:17;;;;;;;25.13;12.18;;;;;;;9.10;100.00;99311.50;5010870;28;20026;-70
2023/11/10 04:10:43;;;;;;;26.25;12.77;;;;;;;9.15;100.00;99308.16;5012575;28;20610;-70
2023/11/10 04:13:08;;;;;;;26.45;12.25;;;;;;;9.18;100.00;99303.16;5012587;28;20393;-70
2023/11/10 04:15:33;;;;;;;25.17;12.05;;;;;;;9.07;100.00;99300.38;5010560;28;20044;-70
2023/11/10 04:18:02;;;;;;;26.58;11.60;;;;;;;8.96;100.00;99298.47;5008234;28;20053;-70
2023/11/10 04:20:27;;;;;;;26.42;11.98;;;;;;;8.81;100.00;99294.34;4991341;28;20037;-70
2023/11/10 04:22:53;;;;;;;27.63;11.55;;;;;;;8.83;100.00;99294.91;5008353;28;20091;-70
2023/11/10 04:25:18;;;;;;;24.05;12.25;;;;;;;8.84;100.00;99293.03;5007428;28;20041;-70
2023/11/10 04:27:44;;;;;;;25.48;11.88;;;;;;;8.88;100.00;99287.00;5007978;28;20118;-70
2023/11/10 04:30:10;;;;;;;33.83;13.07;;;;;;;8.92;100.00;99284.69;5009257;28;20080;-70
2023/11/10 04:32:38;;;;;;;33.08;13.18;;;;;;;8.89;100.00;99266.38;5011063;28;20034;-70
2023/11/10 04:35:04;;;;;;;34.25;12.15;;;;;;;8.88;100.00;99244.09;5011230;28;20389;-70
2023/11/10 04:37:29;;;;;;;28.10;11.73;;;;;;;9.15;100.00;99273.25;5012662;28;20040;-70
2023/11/10 04:39:55;;;;;;;25.92;11.60;;;;;;;9.12;100.00;99262.97;5011879;28;20036;-70
2023/11/10 04:42:20;;;;;;;26.23;11.90;;;;;;;9.10;100.00;99252.44;5006716;28;20102;-70
2023/11/10 04:44:46;;;;;;;25.25;12.45;;;;;;;9.25;100.00;99268.16;4991216;28;20444;-70
2023/11/10 04:47:12;;;;;;;28.45;13.13;;;;;;;9.28;100.00;99267.72;4990839;28;20036;-70
2023/11/10 04:49:38;;;;;;;26.35;12.98;;;;;;;9.26;100.00;99267.09;4990386;28;20513;-70
2023/11/10 04:52:04;;;;;;;23.83;12.38;;;;;;;9.18;100.00;99252.16;5007334;28;20038;-70
2023/11/10 04:54:30;;;;;;;23.77;11.73;;;;;;;9.06;100.00;99261.19;4990890;28;20405;-70
2023/11/10 04:56:55;;;;;;;22.95;11.63;;;;;;;9.14;100.00;99255.53;5007266;28;20022;-70
2023/11/10 04:59:21;;;;;;;27.40;12.85;;;;;;;9.25;100.00;99270.03;4992143;28;20038;-70
2023/11/10 05:01:47;;;;;;;22.95;12.30;;;;;;;9.25;100.00;99265.47;4992295;28;20061;-71
2023/11/10 05:04:13;;;;;;;23.83;13.00;;;;;;;9.26;100.00;99266.28;4992402;28;20022;-69
2023/11/10 05:06:39;;;;;;;20.25;11.68;;;;;;;9.30;100.00;99272.84;4991140;28;20034;-71
2023/11/10 05:09:08;;;;;;;21.45;12.15;;;;;;;9.29;100.00;99269.34;4991714;28;20038;-70
2023/11/10 05:11:34;;;;;;;21.48;11.27;;;;;;;9.26;100.00;99261.75;4991771;28;20053;-70
2023/11/10 05:14:00;;;;;;;22.08;12.18;;;;;;;9.28;100.00;99259.66;4990789;28;20090;-71
2023/11/10 05:16:25;;;;;;;18.45;11.23;;;;;;;9.21;100.00;99268.84;4992204;28;20038;-69
2023/11/10 05:18:50;;;;;;;24.95;12.70;;;;;;;9.19;100.00;99266.38;4992264;28;20049;-68
2023/11/10 05:21:17;;;;;;;20.52;11.50;;;;;;;9.15;100.00;99259.84;5016102;28;20138;-70
2023/11/10 05:23:43;;;;;;;26.17;12.38;;;;;;;9.16;100.00;99254.22;5007088;28;20504;-70
2023/11/10 05:26:10;;;;;;;24.60;12.10;;;;;;;9.11;100.00;99258.66;5006600;28;20034;-70
2023/11/10 05:28:36;;;;;;;22.58;12.30;;;;;;;8.97;100.00;99257.19;4990560;28;20038;-69
2023/11/10 05:31:01;;;;;;;24.42;13.60;;;;;;;8.84;100.00;99259.00;4990333;28;20035;-70
2023/11/10 05:33:27;;;;;;;24.38;12.77;;;;;;;8.82;100.00;99263.78;4991301;28;20106;-70
2023/11/10 05:35:52;;;;;;;19.73;11.55;;;;;;;8.93;100.00;99260.31;4989107;28;20081;-69
2023/11/10 05:38:17;;;;;;;25.20;12.57;;;;;;;8.89;100.00;99269.88;4989662;28;20034;-69
2023/11/10 05:40:43;;;;;;;27.17;13.05;;;;;;;8.83;100.00;99261.91;4990142;28;20058;-69
2023/11/10 05:43:08;;;;;;;27.17;13.35;;;;;;;8.89;100.00;99261.81;4989329;28;20486;-68
2023/11/10 05:45:34;;;;;;;29.40;13.68;;;;;;;8.83;100.00;99265.41;5004969;28;20062;-69
2023/11/10 05:48:00;;;;;;;29.40;13.20;;;;;;;8.86;100.00;99266.81;5004235;28;20011;-69
2023/11/10 05:50:26;;;;;;;26.30;13.07;;;;;;;8.83;100.00;99260.03;4988959;28;20490;-68
2023/11/10 05:52:51;;;;;;;19.30;11.73;;;;;;;8.79;100.00;99247.31;4989019;28;20093;-69
2023/11/10 05:55:16;;;;;;;21.73;11.80;;;;;;;8.76;100.00;99266.53;4991030;28;20146;-69
2023/11/10 05:57:42;;;;;;;28.42;12.07;;;;;;;8.60;100.00;99273.31;5005690;28;20034;-69
2023/11/10 06:00:08;;;;;;;21.88;11.23;;;;;;;8.61;100.00;99264.22;4989621;28;20489;-69
2023/11/10 06:02:34;;;;;;;16.75;10.68;;;;;;;8.62;100.00;99265.88;4991918;28;20030;-69
2023/11/10 06:04:59;;;;;;;17.00;9.07;;;;;;;8.63;100.00;99272.88;4990158;28;20035;-69
2023/11/10 06:07:24;;;;;;;13.13;9.75;;;;;;;8.59;100.00;99271.69;4989893;28;20040;-69
2023/11/10 06:09:50;;;;;;;12.57;8.48;;;;;;;8.57;100.00;99274.56;4988038;28;20547;-69
2023/11/10 06:12:17;;;;;;;13.45;8.38;;;;;;;8.72;100.00;99268.03;4991771;28;20034;-68
2023/11/10 06:14:43;;;;;;;12.35;8.00;;;;;;;8.63;100.00;99270.19;4994588;28;20034;-69
2023/11/10 06:17:08;;;;;;;11.48;7.47;;;;;;;8.65;100.00;99266.25;4992742;28;20044;-68
2023/11/10 06:19:34;;;;;;;11.23;7.55;;;;;;;8.84;100.00;99269.75;4990603;28;20125;-68
2023/11/10 06:22:00;;;;;;;11.27;7.43;;;;;;;8.92;100.00;99265.94;4992431;28;20030;-68
2023/11/10 06:24:25;;;;;;;17.02;8.02;;;;;;;8.83;100.00;99276.13;5002810;28;20117;-69
2023/11/10 06:26:50;;;;;;;12.00;7.13;;;;;;;8.89;100.00;99274.41;5010797;28;20065;-68
2023/11/10 06:29:16;;;;;;;11.32;6.82;;;;;;;8.83;100.00;99278.81;5009960;28;20585;-69
2023/11/10 06:31:42;;;;;;;9.68;6.72;;;;;;;8.62;100.00;99236.38;4995265;28;20093;-69
2023/11/10 06:34:07;;;;;;;9.50;6.53;;;;;;;8.74;100.00;99280.19;4993801;28;20037;-69
2023/11/10 06:36:33;;;;;;;7.55;5.97;;;;;;;8.72;100.00;99279.56;4995036;28;20041;-69
2023/11/10 06:38:58;;;;;;;10.82;6.68;;;;;;;8.85;100.00;99287.47;5009931;28;20030;-69
2023/11/10 06:41:24;;;;;;;8.70;6.20;;;;;;;8.65;100.00;99266.25;5001999;28;20038;-69
2023/11/10 06:43:50;;;;;;;7.53;6.00;;;;;;;8.69;100.00;99283.53;5013924;28;20064;-69
2023/11/10 06:46:22;;;;;;;11.20;7.10;;;;;;;8.81;100.00;99278.25;5029289;28;20049;-69
2023/11/10 06:48:50;;;;;;;9.32;6.25;;;;;;;8.74;100.00;99277.50;5012784;28;20033;-69
2023/11/10 06:51:16;;;;;;;10.98;6.90;;;;;;;8.99;100.00;99271.22;5012182;28;20413;-69
2023/11/10 06:53:41;;;;;;;7.47;5.82;;;;;;;9.09;100.00;99280.34;5012590;28;20026;-68
2023/11/10 06:56:07;;;;;;;8.32;6.60;;;;;;;8.91;100.00;99270.47;5013683;28;20034;-69
2023/11/10 06:58:33;;;;;;;10.32;6.38;;;;;;;8.93;100.00;99271.03;5013293;28;20464;-69
2023/11/10 07:00:58;;;;;;;8.35;5.50;;;;;;;8.92;100.00;99266.75;5012344;28;20038;-69
2023/11/10 07:03:24;;;;;;;10.05;5.85;;;;;;;8.86;100.00;99274.88;4996123;28;20040;-70
2023/11/10 07:05:49;;;;;;;9.85;5.35;;;;;;;8.94;100.00;99269.22;5029329;28;20030;-70
2023/11/10 07:08:14;;;;;;;8.98;6.15;;;;;;;8.88;100.00;99268.25;5012838;28;20038;-70
2023/11/10 07:10:43;;;;;;;10.77;5.95;;;;;;;8.68;100.00;99279.22;5012637;28;20440;-69
2023/11/10 07:13:09;;;;;;;8.82;6.05;;;;;;;8.93;100.00;99279.09;5013883;28;20033;-70
2023/11/10 07:15:35;;;;;;;6.88;5.47;;;;;;;9.01;100.00;99286.03;5032849;28;20061;-69
2023/11/10 07:18:02;;;;;;;9.48;6.00;;;;;;;9.06;100.00;99282.66;5029370;28;20034;-69
2023/11/10 07:20:30;;;;;;;13.52;6.07;;;;;;;8.90;100.00;99286.78;5022739;28;20061;-70
2023/11/10 07:22:56;;;;;;;9.68;5.60;;;;;;;8.74;100.00;99287.38;5011719;28;20026;-70
2023/11/10 07:25:24;;;;;;;9.95;5.88;;;;;;;8.80;100.00;99292.66;5011899;28;20088;-70
2023/11/10 07:27:50;;;;;;;10.25;5.70;;;;;;;8.88;100.00;99291.56;5011617;28;20034;-70
2023/11/10 07:30:15;;;;;;;11.50;6.50;;;;;;;8.74;100.00;99290.91;5012928;28;20034;-70
2023/11/10 07:32:41;;;;;;;9.13;6.50;;;;;;;8.59;100.00;99288.59;5013329;28;20529;-70
2023/11/10 07:35:06;;;;;;;10.07;6.65;;;;;;;8.50;100.00;99297.16;5012012;28;20389;-70
2023/11/10 07:37:35;;;;;;;10.88;6.72;;;;;;;8.44;100.00;99272.88;5013144;28;20088;-70
2023/11/10 07:40:05;;;;;;;10.73;7.10;;;;;;;8.54;100.00;99301.00;5011550;28;20077;-70
2023/11/10 07:42:36;;;;;;;11.98;8.13;;;;;;;8.50;100.00;99300.63;5012920;28;20029;-69
2023/11/10 07:45:01;;;;;;;11.45;7.97;;;;;;;8.31;100.00;99278.34;4996221;28;20033;-69
2023/11/10 07:47:28;;;;;;;11.40;7.90;;;;;;;8.56;100.00;99301.63;5013171;28;20066;-69
2023/11/10 07:49:53;;;;;;;12.00;8.13;;;;;;;8.61;100.00;99302.59;5013083;28;20422;-69
2023/11/10 07:52:20;;;;;;;11.25;8.43;;;;;;;8.78;100.00;99310.88;4995613;28;20033;-69
2023/11/10 07:54:45;;;;;;;11.18;8.02;;;;;;;8.80;100.00;99306.09;4995829;28;20117;-69
2023/11/10 07:57:10;;;;;;;10.10;7.95;;;;;;;8.87;100.00;99298.81;5028164;28;20146;-69
2023/11/10 07:59:36;;;;;;;10.32;8.25;;;;;;;8.67;100.00;99298.19;5011734;28;20033;-70
2023/11/10 08:02:02;;;;;;;16.33;8.25;;;;;;;8.50;100.00;99310.56;5011462;28;20034;-69
2023/11/10 08:04:28;;;;;;;11.15;8.05;;;;;;;8.56;100.00;99306.97;5011798;28;20504;-70
2023/11/10 08:06:53;;;;;;;14.43;9.27;;;;;;;8.39;100.00;99307.56;5011865;28;20044;-70
2023/11/10 08:09:22;;;;;;;13.65;9.50;;;;;;;8.49;100.00;99317.78;5011542;28;20108;-69
2023/11/10 08:11:48;;;;;;;12.95;8.75;;;;;;;8.35;100.00;99314.38;5011563;28;20029;-69
2023/11/10 08:14:13;;;;;;;14.27;8.38;;;;;;;8.19;100.00;99296.19;5013811;28;20038;-69
2023/11/10 08:16:40;;;;;;;13.77;10.65;;;;;;;8.35;100.00;99308.22;5012744;28;20223;-69
2023/11/10 08:19:06;;;;;;;13.30;9.02;;;;;;;8.18;100.00;99297.25;5012713;28;20420;-69
2023/11/10 08:21:31;;;;;;;11.77;9.35;;;;;;;8.26;100.00;99309.53;5027523;28;20485;-69
2023/11/10 08:23:57;;;;;;;16.60;13.43;;;;;;;7.98;100.00;99306.28;5012400;28;20061;-69
2023/11/10 08:26:22;;;;;;;14.13;11.27;;;;;;;8.06;100.00;99320.41;5027666;28;20117;-69
2023/11/10 08:28:48;;;;;;;15.25;10.55;;;;;;;8.28;100.00;99313.63;5010920;28;20018;-70
2023/11/10 08:31:14;;;;;;;11.82;7.93;;;;;;;8.43;100.00;99316.78;5011176;28;20022;-70
2023/11/10 08:33:39;;;;;;;9.63;5.85;;;;;;;8.38;100.00;99313.16;5011030;28;20033;-70
2023/11/10 08:36:05;;;;;;;7.18;6.22;;;;;;;8.58;100.00;99313.78;5012158;28;20394;-69
2023/11/10 08:38:31;;;;;;;8.65;6.05;;;;;;;8.34;100.00;99319.94;5010958;28;20108;-69
2023/11/10 08:40:57;;;;;;;9.63;6.47;;;;;;;8.43;100.00;99322.16;5012106;28;20037;-69
2023/11/10 08:43:22;;;;;;;8.32;5.63;;;;;;;8.47;100.00;99312.63;5011035;28;20449;-70
2023/11/10 08:45:48;;;;;;;9.85;5.70;;;;;;;8.47;100.00;99323.34;4994704;28;20033;-69
2023/11/10 08:48:13;;;;;;;6.47;5.53;;;;;;;8.58;100.00;99324.50;5010865;28;20029;-70
2023/11/10 08:50:39;;;;;;;7.43;5.07;;;;;;;8.46;100.00;99305.63;5012142;28;20060;-70
2023/11/10 08:53:06;;;;;;;6.32;4.85;;;;;;;8.38;100.00;99307.81;5012112;28;20112;-70
2023/11/10 08:55:32;;;;;;;7.32;5.25;;;;;;;8.50;100.00;99308.69;5027343;28;20029;-69
2023/11/10 08:57:58;;;;;;;8.95;5.10;;;;;;;8.53;100.00;99307.44;5027071;28;20037;-69
2023/11/10 09:00:24;;;;;;;7.20;5.05;;;;;;;8.56;100.00;99305.13;5012262;28;20056;-69
2023/11/10 09:02:51;;;;;;;7.45;4.88;;;;;;;8.63;100.00;99300.50;5011514;28;20025;-69
2023/11/10 09:05:20;;;;;;;7.47;5.32;;;;;;;8.83;100.00;99304.81;5011456;28;20105;-69
2023/11/10 09:07:45;;;;;;;8.23;4.82;;;;;;;8.65;100.00;99293.06;5011311;28;20029;-69
2023/11/10 09:10:11;;;;;;;7.47;5.15;;;;;;;8.66;100.00;99301.91;5012444;28;20169;-69
2023/11/10 09:12:42;;;;;;;6.30;4.97;;;;;;;8.56;100.00;99304.31;5011419;28;20539;-69
2023/11/10 09:15:11;;;;;;;6.97;5.28;;;;;;;8.72;100.00;99297.53;5026433;28;20030;-69
2023/11/10 09:17:37;;;;;;;6.80;5.25;;;;;;;8.80;100.00;99289.19;5011310;28;20038;-70
2023/11/10 09:20:03;;;;;;;7.85;4.78;;;;;;;8.89;100.00;99303.94;4993932;28;20030;-69
2023/11/10 09:22:28;;;;;;;6.20;5.25;;;;;;;8.90;100.00;99301.00;5015936;28;20030;-69
2023/11/10 09:24:53;;;;;;;6.13;5.38;;;;;;;9.01;100.00;99306.69;5010661;28;20497;-69
2023/11/10 09:27:19;;;;;;;9.45;5.70;;;;;;;8.94;100.00;99288.81;5011139;28;20040;-70
2023/11/10 09:29:45;;;;;;;9.80;6.47;;;;;;;8.82;100.00;99297.81;5011159;28;20037;-69
2023/11/10 09:32:10;;;;;;;8.70;5.82;;;;;;;8.85;100.00;99292.84;5009815;28;20049;-69
2023/11/10 09:34:40;;;;;;;8.75;6.15;;;;;;;8.88;100.00;99299.63;5010446;28;20476;-69
2023/11/10 09:37:06;;;;;;;10.52;7.22;;;;;;;8.74;100.00;99290.91;5011586;28;20042;-69
2023/11/10 09:39:32;;;;;;;10.35;6.93;;;;;;;8.73;100.00;99301.84;5011734;28;20026;-69
2023/11/10 09:42:06;;;;;;;10.13;6.60;;;;;;;8.71;100.00;99296.72;5023151;28;20056;-69
2023/11/10 09:44:36;;;;;;;10.90;7.30;;;;;;;8.84;100.00;99301.09;5024131;28;20028;-69
2023/11/10 09:47:03;;;;;;;10.50;6.53;;;;;;;8.91;100.00;99299.16;5015089;28;20034;-69
2023/11/10 09:49:30;;;;;;;13.35;7.18;;;;;;;9.03;100.00;99293.84;5015345;28;20046;-70
2023/11/10 09:51:56;;;;;;;11.70;6.45;;;;;;;8.88;100.00;99287.00;5015391;28;20477;-69
2023/11/10 09:54:23;;;;;;;9.57;6.07;;;;;;;9.00;100.00;99289.75;5015612;28;20037;-69
2023/11/10 09:56:50;;;;;;;8.30;6.05;;;;;;;9.03;100.00;99288.47;5014219;28;20427;-69
2023/11/10 09:59:16;;;;;;;9.30;6.55;;;;;;;9.02;100.00;99287.66;4997337;28;20073;-69
2023/11/10 10:01:43;;;;;;;10.35;6.15;;;;;;;9.04;100.00;99295.47;5013385;28;20289;-69
2023/11/10 10:04:09;;;;;;;11.45;7.07;;;;;;;9.16;100.00;99288.31;5013424;28;20041;-69
2023/11/10 10:06:36;;;;;;;12.40;5.85;;;;;;;9.00;100.00;99272.84;5031116;28;20026;-69
2023/11/10 10:09:05;;;;;;;8.68;6.30;;;;;;;9.32;100.00;99282.31;5028707;28;20096;-69
2023/11/10 10:11:32;;;;;;;11.52;5.75;;;;;;;9.24;100.00;99268.38;5014912;28;20043;-69
2023/11/10 10:13:57;;;;;;;9.02;5.68;;;;;;;9.31;100.00;99272.63;5029784;28;20493;-69
2023/11/10 10:16:23;;;;;;;12.15;5.22;;;;;;;9.36;100.00;99279.97;5013203;28;20049;-69
2023/11/10 10:18:54;;;;;;;10.07;5.50;;;;;;;9.02;100.00;99260.84;5029869;28;20069;-69
2023/11/10 10:21:20;;;;;;;9.82;5.82;;;;;;;9.28;100.00;99280.31;4996704;28;20072;-69
2023/11/10 10:23:47;;;;;;;9.13;5.80;;;;;;;9.07;100.00;99274.41;5014737;28;20073;-69
2023/11/10 10:26:13;;;;;;;10.20;5.88;;;;;;;9.32;100.00;99279.63;5014850;28;20026;-69
2023/11/10 10:28:39;;;;;;;15.52;6.60;;;;;;;9.31;100.00;99274.50;5013459;28;20052;-69
2023/11/10 10:31:08;;;;;;;12.07;5.18;;;;;;;9.26;100.00;99275.16;5014620;28;20113;-69
2023/11/10 10:33:34;;;;;;;10.75;5.10;;;;;;;9.46;100.00;99271.38;5013377;28;20107;-69
2023/11/10 10:35:59;;;;;;;12.10;5.50;;;;;;;9.49;100.00;99268.22;5015000;28;20057;-69
2023/11/10 10:38:33;;;;;;;14.07;5.05;;;;;;;9.33;100.00;99257.09;5013645;28;20057;-69
2023/11/10 10:41:02;;;;;;;14.50;5.68;;;;;;;9.44;100.00;99268.94;5014562;28;20030;-69
2023/11/10 10:43:28;;;;;;;11.77;5.78;;;;;;;9.30;100.00;99262.09;5029725;28;20121;-69
2023/11/10 10:45:55;;;;;;;12.95;5.75;;;;;;;9.37;100.00;99258.28;5013261;28;20037;-69
2023/11/10 10:48:21;;;;;;;10.93;5.55;;;;;;;9.11;100.00;99234.53;5029550;28;20496;-69
2023/11/10 10:50:48;;;;;;;10.52;5.60;;;;;;;9.31;100.00;99259.19;5013937;28;20053;-69
2023/11/10 10:53:17;;;;;;;11.95;5.95;;;;;;;9.15;100.00;99247.25;5012837;28;20026;-69
2023/11/10 10:55:43;;;;;;;15.60;6.03;;;;;;;9.34;100.00;99249.88;5013435;28;20034;-68
2023/11/10 10:58:08;;;;;;;11.93;6.38;;;;;;;9.42;100.00;99244.16;5013903;28;20159;-69
2023/11/10 11:00:37;;;;;;;17.92;7.10;;;;;;;9.54;100.00;99225.41;5014798;28;20036;-69
2023/11/10 11:03:24;;;;;;;13.80;6.38;;;;;;;9.73;100.00;99245.72;5022960;28;20374;-68
2023/11/10 11:05:59;;;;;;;17.67;8.32;;;;;;;9.59;100.00;99239.75;5028867;28;20033;-69
2023/11/10 11:08:46;;;;;;;16.13;6.93;;;;;;;9.59;100.00;99238.94;5013597;28;20022;-69
2023/11/10 11:11:30;;;;;;;14.05;5.18;;;;;;;9.23;100.00;99235.34;5013493;28;20037;-69
2023/11/10 11:14:14;;;;;;;15.13;6.22;;;;;;;9.46;100.00;99228.41;5013544;28;20112;-69
2023/11/10 11:16:39;;;;;;;16.38;6.07;;;;;;;9.67;100.00;99229.72;5013630;28;20029;-68
2023/11/10 11:19:19;;;;;;;13.80;6.32;;;;;;;9.74;100.00;99228.59;5012214;28;20029;-68
2023/11/10 11:21:47;;;;;;;17.60;6.55;;;;;;;9.67;100.00;99229.72;5012919;28;20064;-68